createdAt,value
2022-08-22T00:01:57.555Z,14.88
2022-08-22T00:02:45.175Z,16.47
2022-08-22T00:05:34.175Z,14.91
2022-08-22T00:09:29.091Z,14.92
2022-08-22T00:12:47.376Z,14.91
2022-08-22T00:15:45.283Z,14.92
2022-08-22T00:18:55.362Z,14.92
2022-08-22T00:22:06.046Z,14.92
2022-08-22T00:25:33.150Z,14.92
2022-08-22T00:28:17.523Z,14.91
2022-08-22T00:31:37.223Z,14.90
2022-08-22T00:34:16.610Z,14.90
2022-08-22T00:37:31.665Z,14.89
2022-08-22T00:40:28.770Z,14.88
2022-08-22T00:43:32.220Z,14.87
2022-08-22T00:46:50.420Z,14.86
2022-08-22T00:50:20.282Z,14.85
2022-08-22T00:53:37.846Z,14.83
2022-08-22T00:57:14.661Z,14.81
2022-08-22T00:59:52.836Z,14.79
2022-08-22T01:02:52.528Z,14.77
2022-08-22T01:05:44.579Z,14.74
2022-08-22T01:08:56.091Z,14.74
2022-08-22T01:11:57.135Z,14.71
2022-08-22T01:15:12.528Z,14.71
2022-08-22T01:18:45.953Z,14.69
2022-08-22T01:22:00.805Z,14.66
2022-08-22T01:25:11.771Z,14.65
2022-08-22T01:28:30.411Z,14.64
2022-08-22T01:31:51.764Z,14.62
2022-08-22T01:35:28.968Z,14.62
2022-08-22T01:38:43.008Z,14.59
2022-08-22T01:41:49.480Z,14.57
2022-08-22T01:45:20.146Z,14.54
2022-08-22T01:48:15.404Z,14.52
2022-08-22T01:51:00.319Z,14.49
2022-08-22T01:54:30.096Z,14.48
2022-08-22T01:57:14.015Z,14.47
2022-08-22T01:59:53.702Z,14.47
2022-08-22T02:03:02.376Z,14.46
2022-08-22T02:05:43.790Z,14.46
2022-08-22T02:08:22.314Z,14.42
2022-08-22T02:11:25.591Z,14.43
2022-08-22T02:14:31.818Z,14.42
2022-08-22T02:17:35.888Z,14.40
2022-08-22T02:20:42.109Z,14.40
2022-08-22T02:24:00.397Z,14.38
2022-08-22T02:27:15.935Z,14.37
2022-08-22T02:30:52.181Z,14.35
2022-08-22T02:33:59.445Z,14.33
2022-08-22T02:37:23.115Z,14.29
2022-08-22T02:40:52.833Z,14.25
2022-08-22T02:43:51.325Z,14.23
2022-08-22T02:47:06.122Z,14.21
2022-08-22T02:50:27.056Z,14.18
2022-08-22T02:53:54.700Z,14.16
2022-08-22T02:57:01.335Z,14.13
2022-08-22T03:00:43.151Z,14.13
2022-08-22T03:03:48.682Z,14.13
2022-08-22T03:07:11.454Z,14.12
2022-08-22T03:10:38.647Z,14.10
2022-08-22T03:14:08.343Z,14.08
2022-08-22T03:17:35.702Z,14.07
2022-08-22T03:21:00.981Z,14.05
2022-08-22T03:24:10.621Z,14.04
2022-08-22T03:26:56.799Z,14.04
2022-08-22T03:29:45.700Z,14.04
2022-08-22T03:32:45.483Z,14.04
2022-08-22T03:35:45.325Z,14.07
2022-08-22T03:39:23.020Z,14.09
2022-08-22T03:42:42.022Z,14.09
2022-08-22T03:46:18.606Z,14.11
2022-08-22T03:49:25.743Z,14.09
2022-08-22T03:52:26.956Z,14.08
2022-08-22T03:55:48.864Z,14.07
2022-08-22T03:59:01.138Z,14.05
2022-08-22T04:01:56.873Z,14.04
2022-08-22T04:05:00.691Z,14.01
2022-08-22T04:08:04.979Z,14.02
2022-08-22T04:10:55.593Z,13.95
2022-08-22T04:13:50.326Z,13.90
2022-08-22T04:17:04.174Z,13.83
2022-08-22T04:20:27.683Z,13.75
2022-08-22T04:23:25.347Z,13.68
2022-08-22T04:26:12.697Z,13.65
2022-08-22T04:28:57.093Z,13.63
2022-08-22T04:31:36.832Z,13.60
2022-08-22T04:34:50.381Z,13.60
2022-08-22T04:37:34.721Z,13.59
2022-08-22T04:40:25.897Z,13.59
2022-08-22T04:43:43.017Z,13.57
2022-08-22T04:46:47.077Z,13.56
2022-08-22T04:49:52.743Z,13.55
2022-08-22T04:52:49.399Z,13.54
2022-08-22T04:56:15.692Z,13.55
2022-08-22T04:59:03.340Z,13.57
2022-08-22T05:02:11.088Z,13.58
2022-08-22T05:04:59.385Z,13.57
2022-08-22T05:07:44.940Z,13.58
2022-08-22T05:10:22.331Z,13.58
2022-08-22T05:13:01.055Z,13.60
2022-08-22T05:15:36.236Z,13.63
2022-08-22T05:18:30.249Z,13.64
2022-08-22T05:21:11.242Z,13.63
2022-08-22T05:24:20.592Z,13.63
2022-08-22T05:26:53.343Z,13.60
2022-08-22T05:29:32.527Z,13.59
2022-08-22T05:32:12.248Z,13.58
2022-08-22T05:34:48.084Z,13.57
2022-08-22T05:37:35.913Z,13.57
2022-08-22T05:40:08.524Z,13.55
2022-08-22T05:42:49.631Z,13.54
2022-08-22T05:45:22.113Z,13.51
2022-08-22T05:48:03.529Z,13.50
2022-08-22T05:51:21.816Z,13.48
2022-08-22T05:54:16.361Z,13.43
2022-08-22T05:57:13.325Z,13.44
2022-08-22T05:59:45.681Z,13.42
2022-08-22T06:02:57.264Z,13.41
2022-08-22T06:05:39.310Z,13.40
2022-08-22T06:08:20.432Z,13.40
2022-08-22T06:10:55.884Z,13.40
2022-08-22T06:13:41.199Z,13.40
2022-08-22T06:16:27.303Z,13.41
2022-08-22T06:18:57.842Z,13.43
2022-08-22T06:21:41.407Z,13.42
2022-08-22T06:24:18.239Z,13.44
2022-08-22T06:26:49.935Z,13.46
2022-08-22T06:29:41.103Z,13.48
2022-08-22T06:32:17.163Z,13.48
2022-08-22T06:35:16.164Z,13.47
2022-08-22T06:37:49.064Z,13.49
2022-08-22T06:40:28.428Z,13.49
2022-08-22T06:42:59.214Z,13.51
2022-08-22T06:45:49.539Z,13.53
2022-08-22T06:48:23.850Z,13.55
2022-08-22T06:50:57.690Z,13.59
2022-08-22T06:53:48.515Z,13.60
2022-08-22T06:56:50.532Z,13.59
2022-08-22T06:59:29.466Z,13.61
2022-08-22T07:02:29.967Z,13.62
2022-08-22T07:04:58.328Z,13.66
2022-08-22T07:07:39.326Z,13.63
2022-08-22T07:10:10.848Z,13.66
2022-08-22T07:12:54.575Z,13.67
2022-08-22T07:15:37.318Z,13.69
2022-08-22T07:18:18.623Z,13.72
2022-08-22T07:20:59.885Z,13.76
2022-08-22T07:23:48.432Z,13.80
2022-08-22T07:26:47.064Z,13.83
2022-08-22T07:30:10.146Z,13.84
2022-08-22T07:33:25.150Z,13.87
2022-08-22T07:36:01.026Z,13.88
2022-08-22T07:38:43.990Z,13.88
2022-08-22T07:41:57.488Z,13.91
2022-08-22T07:45:12.501Z,13.95
2022-08-22T07:48:05.799Z,14.00
2022-08-22T07:50:41.012Z,14.03
2022-08-22T07:53:26.738Z,14.06
2022-08-22T07:55:58.247Z,14.09
2022-08-22T07:58:30.277Z,14.12
2022-08-22T08:00:59.474Z,14.17
2022-08-22T08:03:31.466Z,14.16
2022-08-22T08:06:01.204Z,14.30
2022-08-22T08:08:38.635Z,14.37
2022-08-22T08:11:15.661Z,14.43
2022-08-22T08:13:47.847Z,14.51
2022-08-22T08:16:20.427Z,14.56
2022-08-22T08:18:54.865Z,14.60
2022-08-22T08:21:39.013Z,14.66
2022-08-22T08:24:14.316Z,14.69
2022-08-22T08:27:10.079Z,14.74
2022-08-22T08:29:43.916Z,14.79
2022-08-22T08:32:14.084Z,14.83
2022-08-22T08:34:50.939Z,14.88
2022-08-22T08:37:30.207Z,14.90
2022-08-22T08:40:05.766Z,14.95
2022-08-22T08:43:29.608Z,14.99
2022-08-22T08:46:39.375Z,15.02
2022-08-22T08:49:23.948Z,15.04
2022-08-22T08:52:32.281Z,15.06
2022-08-22T08:55:22.591Z,15.11
2022-08-22T08:58:13.743Z,15.16
2022-08-22T09:01:00.290Z,15.20
2022-08-22T09:04:00.241Z,15.26
2022-08-22T09:07:01.667Z,15.31
2022-08-22T09:09:52.282Z,15.34
2022-08-22T09:12:56.010Z,15.36
2022-08-22T09:16:04.976Z,15.40
2022-08-22T09:18:45.679Z,15.43
2022-08-22T09:21:44.278Z,15.47
2022-08-22T09:24:30.420Z,15.49
2022-08-22T09:27:09.009Z,15.52
2022-08-22T09:29:54.714Z,15.60
2022-08-22T09:36:01.026Z,15.71
2022-08-22T09:38:48.325Z,15.76
2022-08-22T09:41:38.082Z,15.86
2022-08-22T09:44:33.582Z,15.93
2022-08-22T09:47:24.577Z,15.98
2022-08-22T09:50:13.357Z,15.99
2022-08-22T09:53:18.770Z,16.06
2022-08-22T09:56:11.590Z,16.12
2022-08-22T09:59:09.820Z,16.14
2022-08-22T10:02:00.614Z,16.20
2022-08-22T10:04:36.639Z,16.23
2022-08-22T10:07:23.109Z,16.24
2022-08-22T10:10:26.451Z,16.23
2022-08-22T10:13:19.380Z,16.20
2022-08-22T10:16:18.244Z,16.19
2022-08-22T10:19:12.118Z,16.23
2022-08-22T10:22:12.914Z,16.26
2022-08-22T10:25:15.591Z,16.27
2022-08-22T10:28:13.801Z,16.28
2022-08-22T10:31:28.231Z,16.27
2022-08-22T10:34:23.819Z,16.26
2022-08-22T10:37:27.001Z,16.27
2022-08-22T10:40:28.426Z,16.28
2022-08-22T10:43:28.918Z,16.30
2022-08-22T10:46:29.563Z,16.30
2022-08-22T10:49:08.562Z,16.30
2022-08-22T10:51:57.074Z,16.30
2022-08-22T10:55:00.980Z,16.30
2022-08-22T10:58:10.002Z,16.33
2022-08-22T11:01:01.675Z,16.36
2022-08-22T11:04:35.312Z,16.35
2022-08-22T11:07:21.901Z,16.38
2022-08-22T11:10:04.942Z,16.39
2022-08-22T11:12:41.677Z,16.38
2022-08-22T11:15:12.454Z,16.40
2022-08-22T11:18:01.715Z,16.43
2022-08-22T11:20:54.215Z,16.43
2022-08-22T11:23:23.759Z,16.43
2022-08-22T11:26:13.809Z,16.44
2022-08-22T11:28:57.755Z,16.45
2022-08-22T11:31:52.373Z,16.47
2022-08-22T11:34:37.143Z,16.50
2022-08-22T11:37:48.352Z,16.51
2022-08-22T11:40:35.675Z,16.51
2022-08-22T11:43:37.233Z,16.54
2022-08-22T11:46:37.496Z,16.56
2022-08-22T11:49:34.073Z,16.59
2022-08-22T11:52:12.681Z,16.63
2022-08-22T11:54:51.959Z,16.64
2022-08-22T11:57:45.348Z,16.66
2022-08-22T12:00:47.162Z,16.69
2022-08-22T12:03:43.601Z,16.70
2022-08-22T12:06:42.777Z,16.72
2022-08-22T12:09:23.407Z,16.74
2022-08-22T12:12:14.084Z,16.74
2022-08-22T12:15:13.952Z,16.71
2022-08-22T12:18:24.274Z,16.77
2022-08-22T12:20:59.453Z,16.78
2022-08-22T12:24:06.314Z,16.76
2022-08-22T12:27:00.709Z,16.80
2022-08-22T12:30:14.033Z,16.82
2022-08-22T12:33:10.051Z,16.85
2022-08-22T12:36:01.296Z,16.91
2022-08-22T12:39:01.031Z,16.97
2022-08-22T12:42:04.403Z,17.04
2022-08-22T12:44:39.153Z,17.08
2022-08-22T12:47:32.006Z,17.09
2022-08-22T12:50:18.055Z,17.10
2022-08-22T12:53:01.242Z,17.11
2022-08-22T12:55:55.956Z,17.12
2022-08-22T12:58:58.806Z,17.15
2022-08-22T13:01:34.702Z,17.17
2022-08-22T13:04:12.631Z,17.18
2022-08-22T13:07:23.277Z,17.19
2022-08-22T13:10:04.320Z,17.22
2022-08-22T13:12:44.121Z,17.22
2022-08-22T13:15:31.845Z,17.22
2022-08-22T13:18:30.220Z,17.20
2022-08-22T13:21:04.390Z,17.21
2022-08-22T13:23:39.618Z,17.21
2022-08-22T13:26:32.151Z,17.23
2022-08-22T13:32:02.223Z,17.26
2022-08-22T13:34:58.060Z,17.25
2022-08-22T13:37:40.306Z,17.28
2022-08-22T13:40:21.240Z,17.31
2022-08-22T13:42:54.023Z,17.34
2022-08-22T13:45:31.413Z,17.35
2022-08-22T13:48:11.545Z,17.38
2022-08-22T13:51:12.606Z,17.39
2022-08-22T13:54:02.328Z,17.38
2022-08-22T13:57:01.705Z,17.40
2022-08-22T14:00:06.588Z,17.38
2022-08-22T14:02:50.416Z,17.36
2022-08-22T14:05:37.324Z,17.34
2022-08-22T14:08:18.579Z,17.34
2022-08-22T14:11:29.736Z,17.35
2022-08-22T14:14:02.805Z,17.36
2022-08-22T14:16:51.489Z,17.36
2022-08-22T14:19:53.171Z,17.37
2022-08-22T14:22:35.021Z,17.36
2022-08-22T14:25:33.819Z,17.38
2022-08-22T14:28:09.320Z,17.40
2022-08-22T14:31:00.963Z,17.41
2022-08-22T14:33:36.326Z,17.41
2022-08-22T14:36:39.135Z,17.39
2022-08-22T14:39:16.609Z,17.38
2022-08-22T14:42:30.656Z,17.37
2022-08-22T14:45:19.451Z,17.38
2022-08-22T14:48:29.630Z,17.40
2022-08-22T14:50:53.122Z,17.44
2022-08-22T14:53:30.957Z,17.46
2022-08-22T14:56:23.740Z,17.47
2022-08-22T14:59:07.546Z,17.51
2022-08-22T15:02:33.003Z,17.52
2022-08-22T15:05:14.678Z,17.51
2022-08-22T15:08:02.139Z,17.52
2022-08-22T15:10:43.184Z,17.55
2022-08-22T15:13:19.315Z,17.55
2022-08-22T15:16:17.779Z,17.60
2022-08-22T15:19:03.375Z,17.64
2022-08-22T15:21:41.482Z,17.63
2022-08-22T15:24:14.825Z,17.62
2022-08-22T15:26:56.044Z,17.62
2022-08-22T15:30:01.239Z,17.60
2022-08-22T15:32:41.721Z,17.59
2022-08-22T15:35:30.116Z,17.57
2022-08-22T15:38:27.656Z,17.57
2022-08-22T15:41:16.824Z,17.57
2022-08-22T15:43:49.406Z,17.58
2022-08-22T15:46:21.465Z,17.58
2022-08-22T15:49:02.268Z,17.59
2022-08-22T15:51:39.008Z,17.59
2022-08-22T15:54:25.387Z,17.57
2022-08-22T15:56:53.828Z,17.57
2022-08-22T15:59:47.934Z,17.58
2022-08-22T16:02:44.244Z,17.59
2022-08-22T16:05:16.964Z,17.60
2022-08-22T16:08:03.731Z,17.62
2022-08-22T16:10:42.315Z,17.63
2022-08-22T16:13:38.228Z,17.62
2022-08-22T16:16:10.034Z,17.63
2022-08-22T16:18:47.102Z,17.62
2022-08-22T16:21:40.923Z,17.60
2022-08-22T16:24:09.453Z,17.59
2022-08-22T16:26:42.922Z,17.57
2022-08-22T16:29:41.259Z,17.56
2022-08-22T16:32:27.802Z,17.55
2022-08-22T16:34:56.835Z,17.53
2022-08-22T16:37:41.655Z,17.52
2022-08-22T16:40:18.453Z,17.50
2022-08-22T16:43:10.515Z,17.48
2022-08-22T16:45:54.755Z,17.46
2022-08-22T16:48:32.522Z,17.42
2022-08-22T16:51:28.358Z,17.40
2022-08-22T16:54:20.887Z,17.36
2022-08-22T16:57:08.176Z,17.33
2022-08-22T16:59:43.222Z,17.30
2022-08-22T17:02:41.453Z,17.27
2022-08-22T17:05:30.407Z,17.26
2022-08-22T17:08:24.788Z,17.24
2022-08-22T17:11:33.985Z,17.21
2022-08-22T17:14:25.438Z,17.20
2022-08-22T17:17:13.008Z,17.19
2022-08-22T17:20:17.796Z,17.17
2022-08-22T17:23:42.793Z,17.16
2022-08-22T17:26:55.379Z,17.13
2022-08-22T17:29:58.483Z,17.12
2022-08-22T17:33:07.628Z,17.10
2022-08-22T17:35:58.232Z,17.11
2022-08-22T17:38:46.292Z,17.12
2022-08-22T17:41:56.465Z,17.13
2022-08-22T17:45:04.601Z,17.14
2022-08-22T17:47:53.850Z,17.17
2022-08-22T17:50:40.322Z,17.17
2022-08-22T17:53:39.477Z,17.18
2022-08-22T17:56:35.207Z,17.16
2022-08-22T17:59:10.813Z,17.16
2022-08-22T18:01:59.404Z,17.14
2022-08-22T18:04:54.941Z,17.12
2022-08-22T18:07:52.403Z,17.11
2022-08-22T18:10:39.346Z,17.10
2022-08-22T18:13:21.252Z,17.05
2022-08-22T18:16:23.189Z,17.02
2022-08-22T18:19:17.241Z,16.99
2022-08-22T18:22:06.963Z,16.96
2022-08-22T18:25:08.734Z,16.92
2022-08-22T18:28:07.183Z,16.88
2022-08-22T18:31:03.187Z,16.84
2022-08-22T18:33:38.715Z,16.81
2022-08-22T18:36:26.707Z,16.78
2022-08-22T18:39:03.685Z,16.78
2022-08-22T18:41:52.613Z,16.76
2022-08-22T18:44:53.776Z,16.78
2022-08-22T18:47:34.681Z,16.79
2022-08-22T18:50:34.640Z,16.80
2022-08-22T18:53:28.271Z,16.81
2022-08-22T18:56:21.146Z,16.83
2022-08-22T18:59:01.947Z,16.84
2022-08-22T19:02:06.477Z,16.82
2022-08-22T19:05:28.200Z,16.82
2022-08-22T19:08:15.736Z,16.82
2022-08-22T19:11:23.438Z,16.79
2022-08-22T19:13:55.096Z,16.77
2022-08-22T19:16:48.292Z,16.77
2022-08-22T19:20:25.287Z,16.77
2022-08-22T19:23:40.580Z,16.77
2022-08-22T19:26:44.775Z,16.78
2022-08-22T19:29:26.843Z,16.78
2022-08-22T19:32:12.988Z,16.77
2022-08-22T19:35:23.021Z,16.77
2022-08-22T19:38:32.099Z,16.76
2022-08-22T19:41:03.193Z,16.74
2022-08-22T19:43:38.698Z,16.74
2022-08-22T19:46:12.191Z,16.76
2022-08-22T19:48:50.530Z,16.75
2022-08-22T19:51:20.852Z,16.76
2022-08-22T19:54:25.639Z,16.77
2022-08-22T19:57:22.012Z,16.78
2022-08-22T20:00:13.941Z,16.80
2022-08-22T20:03:17.661Z,16.81
2022-08-22T20:06:43.106Z,16.80
2022-08-22T20:09:43.114Z,16.80
2022-08-22T20:12:40.767Z,16.80
2022-08-22T20:15:24.899Z,16.81
2022-08-22T20:21:00.599Z,16.85
2022-08-22T20:23:32.596Z,16.86
2022-08-22T20:26:11.550Z,16.86
2022-08-22T20:28:52.673Z,16.85
2022-08-22T20:31:41.567Z,16.82
2022-08-22T20:34:28.271Z,16.77
2022-08-22T20:37:25.350Z,16.71
2022-08-22T20:40:04.691Z,16.63
2022-08-22T20:42:42.823Z,16.57
2022-08-22T20:45:19.105Z,16.51
2022-08-22T20:47:51.057Z,16.45
2022-08-22T20:50:35.116Z,16.41
2022-08-22T20:53:18.979Z,16.40
2022-08-22T20:55:57.211Z,16.38
2022-08-22T20:58:34.396Z,16.37
2022-08-22T21:01:11.642Z,16.35
2022-08-22T21:04:04.317Z,16.34
2022-08-22T21:06:35.265Z,16.33
2022-08-22T21:09:39.792Z,16.33
2022-08-22T21:12:15.071Z,16.34
2022-08-22T21:14:47.353Z,16.33
2022-08-22T21:17:26.431Z,16.35
2022-08-22T21:19:57.949Z,16.37
2022-08-22T21:22:52.936Z,16.39
2022-08-22T21:25:26.159Z,16.41
2022-08-22T21:27:57.112Z,16.43
2022-08-22T21:30:30.237Z,16.46
2022-08-22T21:33:03.361Z,16.50
2022-08-22T21:35:36.149Z,16.52
2022-08-22T21:38:21.157Z,16.55
2022-08-22T21:40:54.018Z,16.58
2022-08-22T21:43:34.312Z,16.59
2022-08-22T21:46:08.496Z,16.63
2022-08-22T21:48:39.436Z,16.66
2022-08-22T21:51:45.543Z,16.67
2022-08-22T21:54:28.417Z,16.68
2022-08-22T21:57:25.180Z,16.69
2022-08-22T21:59:58.826Z,16.70
2022-08-22T22:02:43.692Z,16.72
2022-08-22T22:05:19.447Z,16.72
2022-08-22T22:07:51.117Z,16.73
2022-08-22T22:10:23.694Z,16.74
2022-08-22T22:12:59.303Z,16.75
2022-08-22T22:15:34.919Z,16.75
2022-08-22T22:18:07.133Z,16.77
2022-08-22T22:20:36.698Z,16.78
2022-08-22T22:23:29.354Z,16.79
2022-08-22T22:26:03.007Z,16.81
2022-08-22T22:28:48.006Z,16.82
2022-08-22T22:31:22.078Z,16.83
2022-08-22T22:33:51.410Z,16.83
2022-08-22T22:36:28.913Z,16.85
2022-08-22T22:39:07.527Z,16.87
2022-08-22T22:41:45.842Z,16.88
2022-08-22T22:44:27.636Z,16.91
2022-08-22T22:47:26.377Z,16.92
2022-08-22T22:50:21.768Z,16.96
2022-08-22T22:53:11.889Z,16.95
2022-08-22T22:56:09.285Z,17.01
2022-08-22T22:58:45.094Z,17.03
2022-08-22T23:01:17.878Z,17.05
2022-08-22T23:03:53.606Z,17.08
2022-08-22T23:06:28.017Z,17.12
2022-08-22T23:08:59.226Z,17.12
2022-08-22T23:11:48.232Z,17.13
2022-08-22T23:14:24.205Z,17.14
2022-08-22T23:17:00.457Z,17.14
2022-08-22T23:19:33.341Z,17.15
2022-08-22T23:22:17.814Z,17.18
2022-08-22T23:24:55.358Z,17.19
2022-08-22T23:27:31.910Z,17.19
2022-08-22T23:30:02.837Z,17.18
2022-08-22T23:33:00.217Z,17.15
2022-08-22T23:35:34.552Z,17.15
2022-08-22T23:38:10.647Z,17.14
2022-08-22T23:40:48.998Z,17.13
2022-08-22T23:43:24.003Z,17.14
2022-08-22T23:45:57.432Z,17.14
2022-08-22T23:48:29.075Z,17.14
2022-08-22T23:51:11.965Z,17.15
2022-08-22T23:53:47.828Z,17.16
2022-08-22T23:57:00.694Z,17.14
2022-08-22T23:59:47.782Z,17.15
